Time;durP1;ratioP1;P1;durP2;ratioP2;P2;SDS_P1;SDS_P2;PMS_P1;PMS_P2;Temp;Humidity;BMP_temperature;BMP_pressure;BME280_temperature;BME280_humidity;BME280_pressure;Samples;Min_cycle;Max_cycle;Signal;HPM_P1;HPM_P2
2021/12/03 00:01:20;;;;;;;66.57;35.80;;;282.20;2278.40;;;;;;5033151;28;20411;-65
2021/12/03 00:03:47;;;;;;;20.02;12.10;;;282.20;2278.40;;;;;;5033138;28;20600;-65
2021/12/03 00:06:14;;;;;;;24.35;14.00;;;282.00;2278.40;;;;;;5033107;28;20029;-67
2021/12/03 00:08:40;;;;;;;24.27;15.23;;;282.00;2278.40;;;;;;5033156;28;20021;-64
2021/12/03 00:11:09;;;;;;;43.55;29.85;;;282.00;2278.40;;;;;;5033170;28;20033;-66
2021/12/03 00:13:36;;;;;;;79.88;55.72;;;282.00;2278.40;;;;;;5033149;28;20418;-64
2021/12/03 00:16:03;;;;;;;49.63;31.27;;;281.70;2278.40;;;;;;5033123;28;20104;-65
2021/12/03 00:18:29;;;;;;;84.32;50.83;;;281.70;2278.40;;;;;;5032897;28;20029;-65
2021/12/03 00:20:56;;;;;;;73.90;46.90;;;281.70;2278.40;;;;;;5033116;28;20122;-66
2021/12/03 00:23:28;;;;;;;115.15;79.07;;;256.90;2252.80;;;;;;5033182;28;20064;-64
2021/12/03 00:25:55;;;;;;;99.05;66.72;;;256.90;2252.80;;;;;;5033044;28;20061;-65
2021/12/03 00:28:21;;;;;;;110.22;77.22;;;256.90;2252.80;;;;;;5033076;28;20026;-68
2021/12/03 00:30:47;;;;;;;144.00;95.78;;;256.90;2252.80;;;;;;5032591;28;20042;-64
2021/12/03 00:33:13;;;;;;;164.43;107.43;;;281.70;2278.40;;;;;;5032821;28;20034;-62
2021/12/03 00:35:39;;;;;;;154.10;104.15;;;281.70;2278.40;;;;;;5032547;28;20083;-65
2021/12/03 00:38:05;;;;;;;94.07;60.85;;;281.90;2278.40;;;;;;5032671;28;20079;-63
2021/12/03 00:40:37;;;;;;;67.70;45.35;;;281.90;2278.40;;;;;;5032656;28;20121;-66
2021/12/03 00:43:04;;;;;;;57.15;38.17;;;281.90;2278.40;;;;;;5032752;28;20037;-66
2021/12/03 00:45:31;;;;;;;70.05;44.33;;;281.80;2278.40;;;;;;5032433;28;20025;-65
2021/12/03 00:47:58;;;;;;;47.20;30.00;;;281.90;2278.40;;;;;;5032319;28;20044;-65
2021/12/03 00:50:26;;;;;;;41.88;27.35;;;282.10;2278.40;;;;;;5032507;28;20029;-64
2021/12/03 00:52:52;;;;;;;44.90;29.67;;;282.00;2278.40;;;;;;5032583;28;20029;-65
2021/12/03 00:55:20;;;;;;;47.05;31.27;;;282.00;2278.40;;;;;;5032259;28;20068;-66
2021/12/03 00:57:46;;;;;;;38.25;25.23;;;282.00;2278.40;;;;;;5032135;28;20479;-65
2021/12/03 01:00:17;;;;;;;24.17;17.75;;;282.10;2278.40;;;;;;5032066;28;20496;-65
2021/12/03 01:02:43;;;;;;;49.97;35.00;;;282.00;2278.40;;;;;;5032220;28;20037;-63
2021/12/03 01:05:10;;;;;;;29.52;19.55;;;282.00;2278.40;;;;;;5031752;28;20025;-64
2021/12/03 01:07:36;;;;;;;38.15;24.67;;;282.00;2278.40;;;;;;5032149;28;20033;-65
2021/12/03 01:10:03;;;;;;;31.10;19.38;;;281.90;2278.40;;;;;;5032048;28;20032;-64
2021/12/03 01:12:28;;;;;;;32.85;20.35;;;281.70;2278.40;;;;;;5031995;28;20057;-64
2021/12/03 01:14:54;;;;;;;34.65;21.05;;;281.90;2278.40;;;;;;5032317;28;20049;-65
2021/12/03 01:17:20;;;;;;;64.60;36.80;;;282.00;2278.40;;;;;;5031797;28;20489;-65
2021/12/03 01:19:46;;;;;;;29.45;20.63;;;282.00;2278.40;;;;;;5031912;28;20029;-65
2021/12/03 01:22:11;;;;;;;36.58;25.38;;;281.80;2278.40;;;;;;5031737;28;20065;-66
2021/12/03 01:24:37;;;;;;;44.10;30.15;;;282.00;2278.40;;;;;;5031671;28;20030;-65
2021/12/03 01:27:03;;;;;;;80.55;50.80;;;281.90;2278.40;;;;;;5031952;28;20034;-66
2021/12/03 01:29:29;;;;;;;37.35;25.52;;;281.80;2278.40;;;;;;5031430;28;20532;-64
2021/12/03 01:31:56;;;;;;;105.60;65.38;;;281.90;2278.40;;;;;;5031855;28;20064;-63
2021/12/03 01:34:23;;;;;;;21.92;14.02;;;281.80;2278.40;;;;;;5031618;28;20029;-63
2021/12/03 01:36:49;;;;;;;23.80;14.95;;;281.90;2278.40;;;;;;5031349;28;20117;-67
2021/12/03 01:39:16;;;;;;;20.35;12.93;;;281.80;2278.40;;;;;;5031633;28;20075;-63
2021/12/03 01:41:42;;;;;;;35.67;22.90;;;281.70;2278.40;;;;;;5031626;28;20371;-66
2021/12/03 01:44:09;;;;;;;22.38;14.13;;;281.60;2278.40;;;;;;5031427;28;20375;-65
2021/12/03 01:46:35;;;;;;;12.35;8.32;;;256.90;2252.80;;;;;;5031303;28;20487;-69
2021/12/03 01:49:02;;;;;;;17.25;12.80;;;256.70;2252.80;;;;;;5031328;28;20067;-65
2021/12/03 01:51:28;;;;;;;16.45;10.70;;;256.70;2252.80;;;;;;5031075;28;20049;-66
2021/12/03 01:53:55;;;;;;;14.73;10.68;;;256.90;2252.80;;;;;;5031578;28;20053;-66
2021/12/03 01:56:21;;;;;;;14.93;9.18;;;256.80;2252.80;;;;;;5031037;28;20029;-69
2021/12/03 01:58:48;;;;;;;12.05;7.85;;;256.90;2252.80;;;;;;5031134;28;20036;-68
2021/12/03 02:01:18;;;;;;;10.65;7.18;;;256.90;2252.80;;;;;;5030843;28;20052;-68
2021/12/03 02:03:46;;;;;;;16.52;9.50;;;281.60;2278.40;;;;;;5031037;28;20033;-70
2021/12/03 02:06:13;;;;;;;11.05;6.30;;;256.90;2252.80;;;;;;5031001;28;20064;-69
2021/12/03 02:08:40;;;;;;;10.88;6.85;;;256.90;2252.80;;;;;;5030671;28;20080;-65
2021/12/03 02:11:07;;;;;;;9.73;6.68;;;281.60;2278.40;;;;;;5030959;28;20025;-66
2021/12/03 02:13:33;;;;;;;12.40;8.55;;;281.60;2278.40;;;;;;5031081;28;20032;-65
2021/12/03 02:15:59;;;;;;;13.88;9.45;;;256.80;2252.80;;;;;;5030787;28;20021;-64
2021/12/03 02:18:25;;;;;;;14.65;11.98;;;256.80;2252.80;;;;;;5030283;28;20025;-68
2021/12/03 02:20:56;;;;;;;15.57;12.30;;;256.60;2252.80;;;;;;5030627;28;20025;-65
2021/12/03 02:23:23;;;;;;;20.60;14.27;;;256.60;2252.80;;;;;;5030972;28;20040;-64
2021/12/03 02:25:50;;;;;;;22.52;16.42;;;256.60;2252.80;;;;;;5030449;28;20071;-68
2021/12/03 02:28:18;;;;;;;26.02;18.10;;;256.60;2252.80;;;;;;5030690;28;20017;-64
2021/12/03 02:30:44;;;;;;;25.42;18.60;;;256.50;2252.80;;;;;;5030550;28;20148;-65
2021/12/03 02:33:11;;;;;;;32.38;20.48;;;256.50;2252.80;;;;;;5030554;28;20029;-69
2021/12/03 02:35:40;;;;;;;28.88;20.63;;;256.30;2252.80;;;;;;5030405;28;20018;-64
2021/12/03 02:38:07;;;;;;;32.97;23.65;;;256.30;2252.80;;;;;;5030262;28;20468;-64
2021/12/03 02:40:33;;;;;;;37.63;25.50;;;256.20;2252.80;;;;;;5030562;28;20025;-67
2021/12/03 02:42:59;;;;;;;30.05;21.65;;;256.10;2252.80;;;;;;5030289;28;20022;-64
2021/12/03 02:45:25;;;;;;;29.02;21.30;;;256.10;2252.80;;;;;;5030328;28;20033;-63
2021/12/03 02:47:51;;;;;;;27.90;20.02;;;256.20;2252.80;;;;;;5030427;28;20151;-65
2021/12/03 02:50:18;;;;;;;24.20;17.55;;;256.20;2252.80;;;;;;5030415;28;20025;-65
2021/12/03 02:52:47;;;;;;;23.33;18.00;;;256.10;2252.80;;;;;;5030134;28;20064;-63
2021/12/03 02:55:13;;;;;;;20.10;15.63;;;231.30;2252.80;;;;;;5030357;28;20024;-66
2021/12/03 02:57:39;;;;;;;18.25;13.77;;;256.00;2252.80;;;;;;5030136;28;20049;-66
2021/12/03 03:00:09;;;;;;;18.08;12.85;;;231.20;2252.80;;;;;;5029903;28;20069;-62
2021/12/03 03:02:35;;;;;;;18.80;12.77;;;231.00;2252.80;;;;;;5030206;28;20025;-66
2021/12/03 03:05:01;;;;;;;17.75;12.52;;;231.10;2252.80;;;;;;5030357;28;20036;-70
2021/12/03 03:07:26;;;;;;;18.40;13.65;;;231.10;2252.80;;;;;;5029949;28;20030;-65
2021/12/03 03:09:52;;;;;;;16.17;12.30;;;231.00;2252.80;;;;;;5030229;28;20026;-67
2021/12/03 03:12:18;;;;;;;31.67;27.52;;;231.00;2252.80;;;;;;5029944;28;20060;-65
2021/12/03 03:14:51;;;;;;;16.50;13.32;;;231.00;2252.80;;;;;;5030189;28;20061;-63
2021/12/03 03:17:18;;;;;;;20.10;17.90;;;231.00;2252.80;;;;;;5029836;28;20056;-64
2021/12/03 03:19:43;;;;;;;20.48;14.18;;;230.90;2252.80;;;;;;5030073;28;20371;-63
2021/12/03 03:22:09;;;;;;;13.82;11.02;;;230.80;2252.80;;;;;;5029750;28;20033;-63
2021/12/03 03:24:35;;;;;;;16.48;12.60;;;230.80;2252.80;;;;;;5030162;28;20080;-67
2021/12/03 03:27:02;;;;;;;14.95;10.77;;;230.70;2252.80;;;;;;5029964;28;20034;-64
2021/12/03 03:29:27;;;;;;;11.80;9.88;;;230.70;2252.80;;;;;;5032077;28;20032;-65
2021/12/03 03:31:53;;;;;;;11.45;8.75;;;230.70;2252.80;;;;;;5034080;28;20034;-65
2021/12/03 03:34:19;;;;;;;11.60;8.38;;;230.60;2252.80;;;;;;5033726;28;20025;-63
2021/12/03 03:36:45;;;;;;;9.27;7.15;;;230.60;2252.80;;;;;;5034214;28;20028;-63
2021/12/03 03:39:13;;;;;;;11.05;7.47;;;230.50;2252.80;;;;;;5033628;28;20025;-64
2021/12/03 03:41:40;;;;;;;8.80;7.07;;;230.60;2252.80;;;;;;5033793;28;20091;-64
2021/12/03 03:44:08;;;;;;;7.82;6.25;;;230.70;2252.80;;;;;;5033635;28;20053;-65
2021/12/03 03:46:34;;;;;;;7.10;6.15;;;230.60;2252.80;;;;;;5033595;28;20487;-64
2021/12/03 03:48:59;;;;;;;6.50;4.43;;;230.70;2252.80;;;;;;5033610;28;20018;-68
2021/12/03 03:51:26;;;;;;;7.05;5.57;;;230.70;2252.80;;;;;;5033518;28;20083;-66
2021/12/03 03:53:52;;;;;;;6.47;4.82;;;230.60;2252.80;;;;;;5033501;28;20502;-68
2021/12/03 03:56:17;;;;;;;6.13;4.28;;;230.50;2252.80;;;;;;5033340;28;20029;-68
2021/12/03 03:58:43;;;;;;;6.60;4.57;;;230.50;2252.80;;;;;;5033587;28;20524;-66
2021/12/03 04:01:13;;;;;;;5.93;4.47;;;230.50;2252.80;;;;;;5032959;28;20060;-65
2021/12/03 04:03:41;;;;;;;7.07;6.45;;;230.40;2252.80;;;;;;5033215;28;20022;-66
2021/12/03 04:06:07;;;;;;;5.10;3.78;;;230.50;2252.80;;;;;;5033105;28;20029;-67
2021/12/03 04:08:32;;;;;;;4.53;3.17;;;205.70;2252.80;;;;;;5033217;28;20030;-65
2021/12/03 04:10:59;;;;;;;6.60;4.93;;;205.70;2252.80;;;;;;5033027;28;20024;-66
2021/12/03 04:13:27;;;;;;;6.05;5.00;;;205.70;2252.80;;;;;;5033389;28;20049;-65
2021/12/03 04:15:53;;;;;;;3.92;2.95;;;205.70;2252.80;;;;;;5033219;28;20029;-63
2021/12/03 04:18:19;;;;;;;5.53;3.50;;;205.70;2252.80;;;;;;5033175;28;20053;-64
2021/12/03 04:20:45;;;;;;;6.72;5.70;;;205.70;2252.80;;;;;;5033251;28;20122;-64
2021/12/03 04:23:16;;;;;;;3.50;3.00;;;230.50;2252.80;;;;;;5032998;28;20060;-67
2021/12/03 04:25:42;;;;;;;3.90;1.95;;;205.70;2252.80;;;;;;5033075;28;20026;-64
2021/12/03 04:28:08;;;;;;;4.40;2.40;;;205.50;2252.80;;;;;;5032915;28;20034;-64
2021/12/03 04:30:34;;;;;;;4.43;3.72;;;205.40;2252.80;;;;;;5032663;28;20025;-63
2021/12/03 04:33:00;;;;;;;4.75;3.95;;;205.50;2252.80;;;;;;5032690;28;20036;-65
2021/12/03 04:35:26;;;;;;;3.28;2.03;;;205.30;2252.80;;;;;;5033001;28;20132;-64
2021/12/03 04:37:53;;;;;;;3.40;2.20;;;205.30;2252.80;;;;;;5032853;28;20025;-66
2021/12/03 04:40:21;;;;;;;2.75;1.80;;;205.20;2252.80;;;;;;5031719;28;20072;-66
2021/12/03 04:42:47;;;;;;;5.70;5.20;;;205.10;2252.80;;;;;;5032345;28;20033;-65
2021/12/03 04:45:18;;;;;;;3.25;1.25;;;205.10;2252.80;;;;;;5032541;28;20053;-65
2021/12/03 04:47:44;;;;;;;3.30;1.52;;;205.00;2252.80;;;;;;5032691;28;20034;-65
2021/12/03 04:50:12;;;;;;;4.13;3.75;;;204.90;2252.80;;;;;;5032398;28;20017;-65
2021/12/03 04:52:38;;;;;;;5.72;4.00;;;204.90;2252.80;;;;;;5032125;28;20029;-64
2021/12/03 04:55:06;;;;;;;2.90;2.60;;;204.90;2252.80;;;;;;5032410;28;20022;-65
2021/12/03 04:57:32;;;;;;;2.83;1.42;;;205.10;2252.80;;;;;;5032308;28;20056;-62
2021/12/03 04:59:57;;;;;;;2.10;1.45;;;204.80;2252.80;;;;;;5031855;28;20132;-64
2021/12/03 05:02:25;;;;;;;3.58;2.42;;;180.10;2252.80;;;;;;5036293;28;20489;-64
2021/12/03 05:04:52;;;;;;;3.88;3.47;;;180.00;2252.80;;;;;;5052107;28;20033;-64
2021/12/03 05:09:54;;;;;;;2.78;1.70;;;179.90;2252.80;;;;;;5052089;28;20021;-66
2021/12/03 05:12:19;;;;;;;2.50;1.75;;;179.80;2252.80;;;;;;5051852;28;20028;-64
2021/12/03 05:14:45;;;;;;;2.70;1.65;;;179.80;2252.80;;;;;;5052047;28;20033;-63
2021/12/03 05:17:11;;;;;;;3.15;1.50;;;179.80;2252.80;;;;;;5052362;28;20017;-64
2021/12/03 05:19:36;;;;;;;3.40;1.50;;;179.70;2252.80;;;;;;5051853;28;20029;-64
2021/12/03 05:22:02;;;;;;;2.38;1.50;;;179.50;2252.80;;;;;;5051837;28;20111;-66
2021/12/03 05:24:28;;;;;;;2.25;1.05;;;179.30;2252.80;;;;;;5051785;28;20029;-65
2021/12/03 05:26:54;;;;;;;4.13;3.72;;;179.20;2252.80;;;;;;5051797;28;20037;-64
2021/12/03 05:29:20;;;;;;;1.85;0.90;;;154.50;2252.80;;;;;;5051336;28;20025;-64
2021/12/03 05:31:46;;;;;;;3.78;1.70;;;154.50;2252.80;;;;;;5051477;28;20094;-65
2021/12/03 05:34:15;;;;;;;5.53;5.03;;;154.50;2252.80;;;;;;5051523;28;20021;-66
2021/12/03 05:36:41;;;;;;;1.73;1.10;;;154.50;2252.80;;;;;;5051694;28;20519;-67
2021/12/03 05:39:07;;;;;;;2.47;1.58;;;154.50;2252.80;;;;;;5051257;28;20068;-64
2021/12/03 05:41:34;;;;;;;2.00;1.08;;;179.20;2252.80;;;;;;5051433;28;20032;-65
2021/12/03 05:44:01;;;;;;;2.92;1.40;;;154.50;2252.80;;;;;;5051269;28;20021;-64
2021/12/03 05:46:26;;;;;;;1.48;1.10;;;154.40;2252.80;;;;;;5051122;28;20071;-63
2021/12/03 05:48:52;;;;;;;4.15;2.63;;;154.40;2252.80;;;;;;5051481;28;20056;-63
2021/12/03 05:51:18;;;;;;;5.88;3.78;;;154.30;2252.80;;;;;;5050867;28;20485;-64
2021/12/03 05:53:44;;;;;;;4.07;2.08;;;154.20;2252.80;;;;;;5050460;28;20074;-64
2021/12/03 05:56:10;;;;;;;3.63;1.88;;;154.10;2252.80;;;;;;5050872;28;20489;-63
2021/12/03 05:58:35;;;;;;;3.00;1.73;;;154.20;2252.80;;;;;;5051203;28;20082;-64
2021/12/03 06:01:02;;;;;;;2.38;1.75;;;154.00;2252.80;;;;;;5050664;28;20056;-65
2021/12/03 06:03:27;;;;;;;2.50;1.60;;;153.90;2252.80;;;;;;5051000;28;20075;-69
2021/12/03 06:05:53;;;;;;;3.60;1.35;;;153.90;2252.80;;;;;;5050947;28;20095;-68
2021/12/03 06:08:19;;;;;;;2.00;1.15;;;154.00;2252.80;;;;;;5050784;28;20033;-64
2021/12/03 06:10:45;;;;;;;3.00;1.80;;;153.70;2252.80;;;;;;5050820;28;20036;-63
2021/12/03 06:13:11;;;;;;;7.22;3.58;;;153.70;2252.80;;;;;;5051004;28;20029;-62
2021/12/03 06:15:37;;;;;;;2.75;1.30;;;153.60;2252.80;;;;;;5050645;28;20029;-62
2021/12/03 06:18:03;;;;;;;2.00;1.20;;;128.90;2252.80;;;;;;5051023;28;20116;-64
2021/12/03 06:20:29;;;;;;;6.15;3.78;;;128.70;2252.80;;;;;;5050515;28;20112;-63
2021/12/03 06:22:55;;;;;;;3.42;1.92;;;128.60;2252.80;;;;;;5050780;28;20118;-64
2021/12/03 06:25:21;;;;;;;9.20;6.13;;;128.40;2252.80;;;;;;5050728;28;20487;-66
2021/12/03 06:27:48;;;;;;;4.03;1.90;;;128.30;2252.80;;;;;;5050443;28;20029;-64
2021/12/03 06:30:18;;;;;;;32.53;21.25;;;128.10;2252.80;;;;;;5050379;28;20442;-67
2021/12/03 06:32:44;;;;;;;8.98;6.22;;;128.20;2252.80;;;;;;5050593;28;20446;-68
2021/12/03 06:35:12;;;;;;;11.32;6.95;;;128.30;2252.80;;;;;;5050248;28;20029;-66
2021/12/03 06:37:38;;;;;;;130.23;82.78;;;128.40;2252.80;;;;;;5050412;28;20025;-66
2021/12/03 06:40:08;;;;;;;26.50;16.10;;;128.30;2252.80;;;;;;5050388;28;20029;-65
2021/12/03 06:42:34;;;;;;;19.33;10.30;;;128.20;2252.80;;;;;;5050307;28;20028;-66
2021/12/03 06:45:03;;;;;;;6.47;2.97;;;128.00;2252.80;;;;;;5050141;28;20027;-64
2021/12/03 06:47:29;;;;;;;10.57;5.10;;;103.30;2227.20;;;;;;5049942;28;20040;-63
2021/12/03 06:49:54;;;;;;;4.68;3.05;;;103.20;2227.20;;;;;;5050577;28;20021;-62
2021/12/03 06:52:20;;;;;;;83.30;52.28;;;128.10;2252.80;;;;;;5048434;28;20501;-64
2021/12/03 06:54:54;;;;;;;88.82;52.35;;;128.20;2252.80;;;;;;5048604;28;20132;-63
2021/12/03 06:57:20;;;;;;;42.55;23.50;;;128.20;2252.80;;;;;;5050011;28;20063;-62
2021/12/03 06:59:46;;;;;;;160.88;91.38;;;128.40;2252.80;;;;;;5049637;28;20071;-59
2021/12/03 07:02:13;;;;;;;17.25;10.55;;;128.40;2252.80;;;;;;5050309;28;20032;-65
2021/12/03 07:04:40;;;;;;;82.70;49.25;;;128.20;2252.80;;;;;;5049770;28;20029;-58
2021/12/03 07:07:05;;;;;;;38.25;21.38;;;128.20;2252.80;;;;;;5050043;28;20516;-60
2021/12/03 07:09:31;;;;;;;79.93;46.70;;;128.10;2252.80;;;;;;5049870;28;20363;-58
2021/12/03 07:11:57;;;;;;;106.35;77.10;;;103.30;2227.20;;;;;;5049757;28;20025;-58
2021/12/03 07:14:23;;;;;;;6.60;3.58;;;103.30;2227.20;;;;;;5050051;28;20032;-58
2021/12/03 07:16:48;;;;;;;19.05;11.32;;;128.00;2252.80;;;;;;5049846;28;20033;-58
2021/12/03 07:19:15;;;;;;;49.03;37.78;;;128.20;2252.80;;;;;;5049944;28;20021;-58
2021/12/03 07:21:40;;;;;;;70.85;48.45;;;128.20;2252.80;;;;;;5049719;28;20029;-64
2021/12/03 07:24:06;;;;;;;61.58;44.53;;;128.20;2252.80;;;;;;5049694;28;20078;-59
2021/12/03 07:26:32;;;;;;;24.42;18.55;;;128.00;2252.80;;;;;;5049833;28;20039;-65
2021/12/03 07:28:58;;;;;;;5.05;3.70;;;128.00;2252.80;;;;;;5049663;28;20406;-61
2021/12/03 07:31:24;;;;;;;27.33;18.60;;;103.30;2227.20;;;;;;5049903;28;20454;-61
2021/12/03 07:33:52;;;;;;;39.70;32.13;;;128.10;2252.80;;;;;;5049771;28;20029;-65
2021/12/03 07:36:18;;;;;;;15.50;12.50;;;128.10;2252.80;;;;;;5049631;28;20025;-59
2021/12/03 07:38:44;;;;;;;7.97;6.72;;;128.10;2252.80;;;;;;5049751;28;20029;-58
2021/12/03 07:41:10;;;;;;;12.98;8.57;;;128.30;2252.80;;;;;;5049681;28;20021;-60
2021/12/03 07:43:35;;;;;;;62.30;34.58;;;128.10;2252.80;;;;;;5050038;28;20685;-60
2021/12/03 07:46:02;;;;;;;18.20;14.15;;;128.20;2252.80;;;;;;5049666;28;20041;-59
2021/12/03 07:48:28;;;;;;;26.50;21.38;;;128.10;2252.80;;;;;;5049728;28;20028;-59
2021/12/03 07:50:56;;;;;;;11.00;8.32;;;128.00;2252.80;;;;;;5049789;28;20025;-58
2021/12/03 07:53:22;;;;;;;30.00;17.38;;;128.10;2252.80;;;;;;5049634;28;20047;-59
2021/12/03 07:55:49;;;;;;;26.58;18.17;;;128.10;2252.80;;;;;;5049275;28;20056;-60
2021/12/03 07:58:16;;;;;;;29.77;21.30;;;128.20;2252.80;;;;;;5049632;28;20059;-64
2021/12/03 08:00:44;;;;;;;7.68;4.43;;;128.00;2252.80;;;;;;5049301;28;20057;-58
2021/12/03 08:03:10;;;;;;;30.80;20.63;;;128.20;2252.80;;;;;;5049463;28;20033;-62
2021/12/03 08:05:36;;;;;;;7.05;4.10;;;128.00;2252.80;;;;;;5049614;28;20571;-58
2021/12/03 08:08:02;;;;;;;16.75;10.52;;;103.20;2227.20;;;;;;5049626;28;20072;-58
2021/12/03 08:10:28;;;;;;;6.10;3.55;;;103.30;2227.20;;;;;;5049379;28;20033;-58
2021/12/03 08:12:54;;;;;;;6.38;3.80;;;128.00;2252.80;;;;;;5049518;28;20072;-60
2021/12/03 08:15:20;;;;;;;16.70;12.27;;;103.30;2227.20;;;;;;5049651;28;20486;-59
2021/12/03 08:17:49;;;;;;;7.43;5.95;;;103.30;2227.20;;;;;;5053485;28;20412;-58
2021/12/03 08:20:15;;;;;;;11.82;6.35;;;128.00;2252.80;;;;;;5053157;28;20029;-62
2021/12/03 08:22:41;;;;;;;13.15;8.68;;;103.20;2227.20;;;;;;5052851;28;20017;-57
2021/12/03 08:25:08;;;;;;;23.95;16.45;;;103.10;2227.20;;;;;;5052742;28;20052;-59
2021/12/03 08:27:35;;;;;;;38.88;31.40;;;103.10;2227.20;;;;;;5052969;28;20032;-58
2021/12/03 08:30:01;;;;;;;11.25;6.97;;;103.30;2227.20;;;;;;5052428;28;20028;-57
2021/12/03 08:32:26;;;;;;;13.65;12.23;;;103.20;2227.20;;;;;;5052703;28;20118;-57
2021/12/03 08:34:52;;;;;;;6.07;4.55;;;103.20;2227.20;;;;;;5053123;28;20052;-62
2021/12/03 08:37:18;;;;;;;6.68;3.22;;;103.30;2227.20;;;;;;5052653;28;20481;-58
2021/12/03 08:39:44;;;;;;;6.45;3.20;;;103.20;2227.20;;;;;;5052793;28;20488;-58
2021/12/03 08:42:11;;;;;;;5.45;4.25;;;103.20;2227.20;;;;;;5052574;28;20467;-57
2021/12/03 08:44:37;;;;;;;4.07;2.05;;;103.20;2227.20;;;;;;5052260;28;20029;-60
2021/12/03 08:47:07;;;;;;;3.40;2.35;;;103.30;2227.20;;;;;;5052731;28;20166;-60
2021/12/03 08:49:38;;;;;;;8.52;4.43;;;103.20;2227.20;;;;;;5052430;28;20025;-58
2021/12/03 08:54:49;;;;;;;3.65;2.35;;;128.00;2252.80;;;;;;5052378;28;20419;-58
2021/12/03 08:57:16;;;;;;;6.30;4.07;;;128.10;2252.80;;;;;;5052315;28;20063;-58
2021/12/03 08:59:42;;;;;;;5.88;3.35;;;128.30;2252.80;;;;;;5052114;28;20041;-60
2021/12/03 09:02:09;;;;;;;2.83;1.80;;;128.10;2252.80;;;;;;5051969;28;20067;-58
2021/12/03 09:04:35;;;;;;;8.32;7.53;;;128.00;2252.80;;;;;;5052163;28;20020;-61
2021/12/03 09:07:01;;;;;;;5.38;3.05;;;128.20;2252.80;;;;;;5051807;28;20029;-58
2021/12/03 09:09:27;;;;;;;4.82;3.05;;;128.30;2252.80;;;;;;5051858;28;20104;-59
2021/12/03 09:11:54;;;;;;;9.32;8.43;;;128.40;2252.80;;;;;;5052626;28;20064;-59
2021/12/03 09:14:38;;;;;;;5.68;2.78;;;128.40;2252.80;;;;;;5051842;28;20021;-57
2021/12/03 09:19:45;;;;;;;7.43;5.38;;;128.60;2252.80;;;;;;5051868;28;20032;-57
2021/12/03 09:22:18;;;;;;;;;;;128.60;2252.80;;;;;;5051340;28;20072;-58
2021/12/03 09:24:44;;;;;;;7.00;4.05;;;128.50;2252.80;;;;;;5051707;28;20264;-61
2021/12/03 09:27:09;;;;;;;16.65;8.02;;;128.70;2252.80;;;;;;5051254;28;20040;-60
2021/12/03 09:29:36;;;;;;;8.43;3.83;;;128.70;2252.80;;;;;;5051989;28;20033;-58
2021/12/03 09:32:02;;;;;;;10.23;4.82;;;128.70;2252.80;;;;;;5051815;28;20043;-58
2021/12/03 09:34:30;;;;;;;4.93;2.85;;;128.90;2252.80;;;;;;5051678;28;20414;-63
2021/12/03 09:36:57;;;;;;;115.95;79.35;;;128.90;2252.80;;;;;;5051353;28;20033;-60
2021/12/03 09:39:24;;;;;;;39.67;24.58;;;128.90;2252.80;;;;;;5051656;28;20379;-60
2021/12/03 09:41:52;;;;;;;10.60;8.15;;;128.80;2252.80;;;;;;5051340;28;20071;-65
2021/12/03 09:44:20;;;;;;;40.20;30.17;;;128.90;2252.80;;;;;;5051374;28;20056;-60
2021/12/03 09:46:47;;;;;;;12.95;9.10;;;153.80;2252.80;;;;;;5051473;28;20041;-62
2021/12/03 09:49:24;;;;;;;10.95;8.57;;;153.70;2252.80;;;;;;5051454;28;20179;-58
2021/12/03 09:54:35;;;;;;;4.38;3.15;;;153.90;2252.80;;;;;;5050993;28;20426;-58
2021/12/03 09:57:10;;;;;;;4.07;2.22;;;153.80;2252.80;;;;;;5051058;28;20410;-59
2021/12/03 10:12:25;;;;;;;3.95;1.73;;;154.00;2252.80;;;;;;5050529;28;20258;-62
2021/12/03 10:14:59;;;;;;;13.40;12.13;;;154.00;2252.80;;;;;;5050937;28;20331;-65
2021/12/03 10:20:22;;;;;;;2.88;2.17;;;154.30;2252.80;;;;;;5051013;28;20043;-65
2021/12/03 10:33:57;;;;;;;6.63;4.38;;;154.50;2252.80;;;;;;5050712;28;20485;-58
2021/12/03 10:47:24;;;;;;;4.30;3.40;;;154.50;2252.80;;;;;;5050421;28;20031;-57
2021/12/03 11:08:11;;;;;;;5.95;4.60;;;154.30;2252.80;;;;;;5049713;28;20060;-62
2021/12/03 13:24:19;;;;;;;26.02;19.65;;;128.90;2252.80;;;;;;5032446;28;20036;-61
2021/12/03 14:07:48;;;;;;;9.50;6.68;;;128.70;2252.80;;;;;;5031186;28;20037;-58
2021/12/03 14:41:33;;;;;;;16.92;13.43;;;128.90;2252.80;;;;;;5066161;28;20064;-57
2021/12/03 14:44:21;;;;;;;18.70;14.30;;;128.70;2252.80;;;;;;5065499;28;20021;-57
2021/12/03 14:52:32;;;;;;;20.48;13.50;;;128.80;2252.80;;;;;;5066160;28;20047;-57
2021/12/03 14:55:02;;;;;;;20.07;12.70;;;128.80;2252.80;;;;;;5065840;28;20478;-62
2021/12/03 14:57:39;;;;;;;18.15;13.27;;;128.80;2252.80;;;;;;5065242;28;20265;-59
2021/12/03 15:03:09;;;;;;;15.23;11.77;;;128.70;2252.80;;;;;;5028499;28;20423;-59
2021/12/03 15:08:21;;;;;;;21.30;15.35;;;128.60;2252.80;;;;;;5028647;28;20606;-58
2021/12/03 15:32:21;;;;;;;73.45;53.53;;;128.90;2252.80;;;;;;5032743;28;20034;-58
2021/12/03 15:34:57;;;;;;;19.35;12.75;;;153.60;2252.80;;;;;;5032323;28;20120;-58
2021/12/03 16:03:42;;;;;;;49.35;33.95;;;128.90;2252.80;;;;;;5031288;28;20048;-59
2021/12/03 16:08:38;;;;;;;28.27;20.50;;;153.60;2252.80;;;;;;5031863;28;20037;-58
2021/12/03 16:45:27;;;;;;;22.75;15.75;;;153.80;2252.80;;;;;;5021421;28;20056;-56
2021/12/03 16:53:20;;;;;;;30.52;22.73;;;153.70;2252.80;;;;;;5025578;28;20088;-58
2021/12/03 16:55:56;;;;;;;24.92;16.88;;;153.70;2252.80;;;;;;5040355;28;20021;-63
2021/12/03 16:58:22;;;;;;;24.55;18.75;;;154.20;2252.80;;;;;;5039647;28;20061;-63
2021/12/03 17:00:55;;;;;;;29.10;23.73;;;153.80;2252.80;;;;;;5038919;28;20045;-60
2021/12/03 17:03:25;;;;;;;25.60;20.45;;;153.80;2252.80;;;;;;5038673;28;20112;-60
2021/12/03 17:22:41;;;;;;;31.40;22.23;;;128.80;2252.80;;;;;;5050650;28;20057;-58
2021/12/03 17:49:48;;;;;;;27.88;18.90;;;128.40;2252.80;;;;;;5049317;28;20090;-59
2021/12/03 18:00:23;;;;;;;23.63;15.82;;;128.30;2252.80;;;;;;5047683;28;20545;-56
2021/12/03 18:02:52;;;;;;;21.27;14.95;;;128.20;2252.80;;;;;;5046688;28;20060;-57
2021/12/03 18:08:22;;;;;;;22.60;17.02;;;128.20;2252.80;;;;;;4964739;28;20066;-60
2021/12/03 18:19:24;;;;;;;20.52;14.50;;;128.20;2252.80;;;;;;4901994;29;20079;-61
2021/12/03 18:49:17;;;;;;;26.77;21.70;;;128.20;2252.80;;;;;;4947461;29;20548;-60
2021/12/03 18:52:05;;;;;;;21.83;16.77;;;128.40;2252.80;;;;;;4947239;29;20038;-59
2021/12/03 18:54:47;;;;;;;17.98;13.05;;;128.40;2252.80;;;;;;4985616;28;20357;-55
2021/12/03 18:57:18;;;;;;;19.70;13.53;;;128.30;2252.80;;;;;;5027305;28;20056;-67
2021/12/03 18:59:53;;;;;;;23.88;14.77;;;128.20;2252.80;;;;;;5027094;28;20123;-56
2021/12/03 19:02:21;;;;;;;25.15;15.43;;;128.20;2252.80;;;;;;5027595;28;20037;-57
2021/12/03 19:05:10;;;;;;;21.42;18.38;;;128.20;2252.80;;;;;;5027515;28;20117;-57
2021/12/03 19:07:49;;;;;;;22.90;15.43;;;128.10;2252.80;;;;;;5027588;28;20033;-57
2021/12/03 19:10:26;;;;;;;26.10;14.77;;;128.10;2252.80;;;;;;5027215;28;20025;-66
2021/12/03 19:13:09;;;;;;;27.60;17.40;;;128.20;2252.80;;;;;;5027642;28;20353;-59
2021/12/03 19:15:35;;;;;;;26.33;17.17;;;128.20;2252.80;;;;;;5027733;28;20052;-55
2021/12/03 19:18:02;;;;;;;100.95;71.20;;;128.20;2252.80;;;;;;5027291;28;20037;-62
2021/12/03 19:20:29;;;;;;;26.83;19.48;;;128.20;2252.80;;;;;;5027448;28;20022;-60
2021/12/03 19:22:54;;;;;;;31.08;23.70;;;128.40;2252.80;;;;;;5027152;28;20084;-60
2021/12/03 19:25:20;;;;;;;26.02;18.83;;;128.30;2252.80;;;;;;5027395;28;20116;-63
2021/12/03 19:27:46;;;;;;;21.90;14.18;;;128.50;2252.80;;;;;;5027328;28;20041;-59
2021/12/03 19:30:12;;;;;;;31.02;17.27;;;128.30;2252.80;;;;;;5027208;28;20053;-66
2021/12/03 19:32:38;;;;;;;22.95;14.23;;;128.30;2252.80;;;;;;5027433;28;20091;-62
2021/12/03 19:35:05;;;;;;;19.83;12.63;;;128.40;2252.80;;;;;;5027190;28;20022;-61
2021/12/03 19:37:31;;;;;;;20.35;13.20;;;128.30;2252.80;;;;;;5027388;28;20026;-57
2021/12/03 19:40:00;;;;;;;17.88;11.68;;;128.30;2252.80;;;;;;5027208;28;20030;-58
2021/12/03 19:42:32;;;;;;;22.20;14.55;;;128.20;2252.80;;;;;;5027161;28;20030;-61
2021/12/03 19:45:05;;;;;;;53.17;32.13;;;128.20;2252.80;;;;;;5027223;28;20037;-57
2021/12/03 19:47:46;;;;;;;24.25;19.20;;;128.10;2252.80;;;;;;5026750;28;20044;-57
2021/12/03 19:52:56;;;;;;;20.33;14.27;;;128.20;2252.80;;;;;;5036259;28;20091;-60